< < Back
Terminal Aerodrome Forecast


Current Version              Previous Versions:   1  2  3  4  5  6  7  8  9  

Terminal Aerodrome Forecast

557
FTUS42 KGSP 272336
TAFHKY
TAF
KHKY 272336Z 2800/2824 20003KT P6SM FEW060 SCT250
      TEMPO 2809/2812 5SM BR
     FM281400 VRB04KT P6SM BKN035 PROB30 2817/2822 4SM TSRA
      BKN025CB=

Latest METAR

355
SAUS70 KWBC 281400 RRH
MTRHKY
METAR KHKY 281353Z 00000KT 10SM CLR 23/18 A3024 RMK AO2 SLP220
T02280183


USA.gov is the U.S. government's official web portal to all federal, state and local government web resources and services.